Time;durP1;ratioP1;P1;durP2;ratioP2;P2;SDS_P1;SDS_P2;PMS_P1;PMS_P2;Temp;Humidity;BMP_temperature;BMP_pressure;BME280_temperature;BME280_humidity;BME280_pressure;Samples;Min_cycle;Max_cycle;Signal;HPM_P1;HPM_P2
2022/06/12 00:00:07;;;;;;;3.53;3.10;;;18.80;99.90;;;;;;4157964;28;20064;-67
2022/06/12 00:02:08;;;;;;;4.95;3.40;;;18.80;99.90;;;;;;4156040;28;20472;-68
2022/06/12 00:04:10;;;;;;;5.30;3.33;;;18.80;99.90;;;;;;4157797;28;20091;-67
2022/06/12 00:06:11;;;;;;;3.13;2.80;;;18.80;99.90;;;;;;4154876;28;20041;-70
2022/06/12 00:08:13;;;;;;;3.45;3.03;;;18.80;99.90;;;;;;4157511;28;20049;-67
2022/06/12 00:10:14;;;;;;;3.47;3.00;;;18.80;99.90;;;;;;4156829;28;20496;-69
2022/06/12 00:12:15;;;;;;;2.97;2.38;;;18.80;99.90;;;;;;4156357;28;20107;-70
2022/06/12 00:14:17;;;;;;;3.47;3.03;;;18.70;99.90;;;;;;4156313;28;20060;-65
2022/06/12 00:16:20;;;;;;;5.30;2.85;;;18.70;99.90;;;;;;4156791;28;20505;-66
2022/06/12 00:18:22;;;;;;;3.05;2.78;;;18.70;99.90;;;;;;4156846;28;20037;-65
2022/06/12 00:20:25;;;;;;;3.58;2.55;;;18.70;99.90;;;;;;4155861;28;20033;-71
2022/06/12 00:22:26;;;;;;;3.72;3.17;;;18.70;99.90;;;;;;4157153;28;20029;-67
2022/06/12 00:24:28;;;;;;;4.20;3.00;;;18.70;99.90;;;;;;4155900;28;20071;-69
2022/06/12 00:26:37;;;;;;;2.92;2.63;;;18.70;99.90;;;;;;4157389;28;20511;-66
2022/06/12 00:28:38;;;;;;;3.58;3.15;;;18.70;99.90;;;;;;4155911;28;20083;-67
2022/06/12 00:30:39;;;;;;;5.97;3.15;;;18.70;99.90;;;;;;4157475;28;20091;-65
2022/06/12 00:32:40;;;;;;;4.40;3.63;;;18.60;99.90;;;;;;4155391;28;20446;-65
2022/06/12 00:34:51;;;;;;;3.90;3.30;;;18.60;99.90;;;;;;4157180;28;20106;-68
2022/06/12 00:36:53;;;;;;;;;;;18.60;99.90;;;;;;4156155;28;20445;-70
2022/06/12 00:38:54;;;;;;;4.57;3.10;;;18.60;99.90;;;;;;4157362;28;19963;-67
2022/06/12 00:40:55;;;;;;;4.22;3.30;;;18.50;99.90;;;;;;4155438;28;20092;-69
2022/06/12 00:43:01;;;;;;;3.50;3.10;;;18.50;99.90;;;;;;4156999;28;20041;-66
2022/06/12 00:45:37;;;;;;;4.50;2.88;;;18.50;99.90;;;;;;4153412;28;20045;-66
2022/06/12 00:47:38;;;;;;;4.00;3.28;;;18.40;99.90;;;;;;4157077;28;20017;-65
2022/06/12 00:50:00;;;;;;;3.78;3.08;;;18.40;99.90;;;;;;4154928;28;20025;-66
2022/06/12 00:52:23;;;;;;;4.32;3.30;;;18.30;99.90;;;;;;4156912;28;20860;-68
2022/06/12 00:54:25;;;;;;;3.72;2.70;;;18.30;99.90;;;;;;4155286;28;20037;-66
2022/06/12 00:56:33;;;;;;;4.63;3.13;;;18.30;99.90;;;;;;4156561;28;20045;-67
2022/06/12 00:58:44;;;;;;;3.45;3.15;;;18.20;99.90;;;;;;4155470;28;20075;-67
2022/06/12 01:00:47;;;;;;;6.88;3.65;;;18.20;99.90;;;;;;4157168;28;20095;-66
2022/06/12 01:02:49;;;;;;;3.80;2.70;;;18.20;99.90;;;;;;4154918;28;20432;-67
2022/06/12 01:07:16;;;;;;;4.25;3.00;;;18.10;99.90;;;;;;4155432;28;20481;-65
2022/06/12 01:09:24;;;;;;;6.72;3.00;;;18.10;99.90;;;;;;4157628;28;20029;-67
2022/06/12 01:11:26;;;;;;;3.35;2.92;;;18.00;99.90;;;;;;4155544;28;20049;-65
2022/06/12 01:13:40;;;;;;;6.20;3.20;;;18.00;99.90;;;;;;4157191;28;20022;-68
2022/06/12 01:15:46;;;;;;;6.25;3.53;;;18.00;99.90;;;;;;4157279;28;20464;-66
2022/06/12 01:17:48;;;;;;;5.22;3.22;;;18.00;99.90;;;;;;4160404;28;21125;-67
2022/06/12 01:19:54;;;;;;;6.00;3.20;;;17.90;99.90;;;;;;4158820;28;20037;-64
2022/06/12 01:22:33;;;;;;;5.70;3.30;;;17.90;99.90;;;;;;4160230;28;20110;-68
2022/06/12 01:24:49;;;;;;;4.05;3.50;;;17.90;99.90;;;;;;4158564;28;20041;-70
2022/06/12 01:27:19;;;;;;;5.20;3.53;;;17.90;99.90;;;;;;4159851;28;20083;-63
2022/06/12 01:29:33;;;;;;;4.35;3.75;;;17.90;99.90;;;;;;4158695;28;20540;-64
2022/06/12 01:31:34;;;;;;;5.53;3.60;;;17.90;99.90;;;;;;4159934;28;20041;-69
2022/06/12 01:33:44;;;;;;;6.05;4.15;;;17.90;99.90;;;;;;4158809;28;20083;-66
2022/06/12 01:35:56;;;;;;;5.93;3.83;;;17.90;99.90;;;;;;4159825;28;20091;-67
2022/06/12 01:38:06;;;;;;;6.53;4.15;;;17.90;99.90;;;;;;4158437;28;20083;-64
2022/06/12 01:40:07;;;;;;;;;;;17.90;99.90;;;;;;4161286;28;20050;-66
2022/06/12 01:42:27;;;;;;;5.13;3.80;;;17.90;99.90;;;;;;4158360;28;19963;-67
2022/06/12 01:44:37;;;;;;;5.35;4.28;;;17.90;99.90;;;;;;4159843;28;20037;-65
2022/06/12 01:46:47;;;;;;;5.60;3.97;;;17.80;99.90;;;;;;4157857;28;20444;-66
2022/06/12 01:49:14;;;;;;;5.75;3.63;;;17.80;99.90;;;;;;4159501;28;20025;-64
2022/06/12 01:51:19;;;;;;;5.45;4.07;;;17.80;99.90;;;;;;4155093;28;20076;-68
2022/06/12 01:53:49;;;;;;;5.82;4.35;;;17.80;99.90;;;;;;4159589;28;20018;-65
2022/06/12 01:55:59;;;;;;;5.40;4.32;;;17.80;99.90;;;;;;4140184;28;20049;-66
2022/06/12 01:58:28;;;;;;;6.55;3.85;;;17.80;99.90;;;;;;4158629;28;20053;-68
2022/06/12 02:00:29;;;;;;;6.55;4.28;;;17.80;99.90;;;;;;4148940;28;20045;-68
2022/06/12 02:02:55;;;;;;;6.15;4.28;;;17.80;99.90;;;;;;4158240;28;20033;-68
2022/06/12 02:05:13;;;;;;;9.65;4.72;;;17.80;99.90;;;;;;4159713;28;20083;-65
2022/06/12 02:07:29;;;;;;;6.00;4.55;;;17.80;99.90;;;;;;4157915;28;20033;-65
2022/06/12 02:09:38;;;;;;;6.13;4.75;;;17.80;99.90;;;;;;4159299;28;20026;-68
2022/06/12 02:14:08;;;;;;;8.38;4.38;;;17.80;99.90;;;;;;4159578;28;20034;-66
2022/06/12 02:16:22;;;;;;;6.78;4.72;;;17.80;99.90;;;;;;4157153;28;20107;-68
2022/06/12 02:18:44;;;;;;;5.97;4.95;;;17.70;99.90;;;;;;4159160;28;20037;-66
2022/06/12 02:20:52;;;;;;;5.40;4.70;;;17.70;99.90;;;;;;4157734;28;20056;-66
2022/06/12 02:22:55;;;;;;;6.18;4.75;;;17.70;99.90;;;;;;4158097;28;20037;-67
2022/06/12 02:25:24;;;;;;;5.47;4.32;;;17.70;99.90;;;;;;4157595;28;20095;-69
2022/06/12 02:27:43;;;;;;;6.57;5.03;;;17.80;99.90;;;;;;4154291;28;20432;-68
2022/06/12 02:29:48;;;;;;;6.45;4.35;;;17.80;99.90;;;;;;4157330;28;20107;-67
2022/06/12 02:31:52;;;;;;;5.65;4.40;;;17.80;99.90;;;;;;4159165;28;20057;-69
2022/06/12 02:34:01;;;;;;;5.88;4.63;;;17.80;99.90;;;;;;4157581;28;20026;-66
2022/06/12 02:36:09;;;;;;;8.98;5.05;;;17.80;99.90;;;;;;4158845;28;20563;-65
2022/06/12 02:38:25;;;;;;;5.85;4.68;;;17.80;99.90;;;;;;4155631;28;20120;-65
2022/06/12 02:40:32;;;;;;;6.15;4.28;;;17.80;99.90;;;;;;4159171;28;20045;-64
2022/06/12 02:42:40;;;;;;;5.68;4.53;;;17.80;99.90;;;;;;4157119;28;20022;-65
2022/06/12 02:44:50;;;;;;;7.15;4.45;;;17.70;99.90;;;;;;4158974;28;20083;-69
2022/06/12 02:47:05;;;;;;;6.60;4.90;;;17.80;99.90;;;;;;4157253;28;20034;-64
2022/06/12 02:49:09;;;;;;;9.20;4.82;;;17.80;99.90;;;;;;4158742;28;20030;-66
2022/06/12 02:51:28;;;;;;;4.80;4.38;;;17.90;99.90;;;;;;4157475;28;20075;-69
2022/06/12 02:54:03;;;;;;;9.23;4.28;;;17.90;99.90;;;;;;4159164;28;20025;-65
2022/06/12 02:56:25;;;;;;;6.20;4.43;;;18.10;99.90;;;;;;4157560;28;20037;-68
2022/06/12 02:58:29;;;;;;;9.10;4.80;;;18.20;99.90;;;;;;4157668;28;20045;-67
2022/06/12 03:00:37;;;;;;;6.60;4.20;;;18.20;99.90;;;;;;4157563;28;20041;-66
2022/06/12 03:02:46;;;;;;;5.85;4.45;;;18.20;99.90;;;;;;4157810;28;20563;-66
2022/06/12 03:04:52;;;;;;;5.22;4.72;;;18.20;99.90;;;;;;4157857;28;20091;-66
2022/06/12 03:06:53;;;;;;;5.82;4.32;;;18.10;99.90;;;;;;4158144;28;20025;-66
2022/06/12 03:08:58;;;;;;;5.88;4.38;;;18.10;99.90;;;;;;4156799;28;20045;-65
2022/06/12 03:11:14;;;;;;;6.95;4.63;;;18.10;99.90;;;;;;4157513;28;20475;-64
2022/06/12 03:13:17;;;;;;;7.57;4.70;;;18.10;99.90;;;;;;4156387;28;20056;-68
2022/06/12 03:15:40;;;;;;;5.10;4.22;;;18.10;99.90;;;;;;4158118;28;20497;-65
2022/06/12 03:17:41;;;;;;;8.07;4.95;;;18.10;99.90;;;;;;4157005;28;20432;-67
2022/06/12 03:19:49;;;;;;;9.82;4.85;;;18.10;99.90;;;;;;4158018;28;20481;-66
2022/06/12 03:21:53;;;;;;;6.35;4.25;;;18.10;99.90;;;;;;4156814;28;20037;-69
2022/06/12 03:24:00;;;;;;;5.40;4.43;;;18.10;99.90;;;;;;4158162;28;20025;-65
2022/06/12 03:26:07;;;;;;;6.97;4.50;;;18.10;99.90;;;;;;4156700;28;20041;-66
2022/06/12 03:28:26;;;;;;;7.70;4.70;;;18.00;99.90;;;;;;4157972;28;20095;-67
2022/06/12 03:30:31;;;;;;;5.03;4.05;;;18.00;99.90;;;;;;4156450;28;20068;-67
2022/06/12 03:32:56;;;;;;;8.77;5.75;;;18.00;99.90;;;;;;4158261;28;20087;-67
2022/06/12 03:35:14;;;;;;;6.20;4.13;;;18.10;99.90;;;;;;4156620;28;20081;-68
2022/06/12 03:37:50;;;;;;;4.85;4.18;;;18.10;99.90;;;;;;4157036;28;20029;-66
2022/06/12 03:40:27;;;;;;;8.50;5.18;;;18.10;99.90;;;;;;4155911;28;20460;-64
2022/06/12 03:42:35;;;;;;;5.18;4.30;;;18.10;99.90;;;;;;4137297;28;20974;-67
2022/06/12 03:45:01;;;;;;;4.95;4.25;;;18.10;99.90;;;;;;4157783;28;20509;-67
2022/06/12 03:47:21;;;;;;;7.85;4.68;;;18.20;99.90;;;;;;4156347;28;20057;-66
2022/06/12 03:49:49;;;;;;;5.50;4.47;;;18.20;99.90;;;;;;4157871;28;20122;-67
2022/06/12 03:51:55;;;;;;;7.03;4.45;;;18.10;99.90;;;;;;4156646;28;20654;-63
2022/06/12 03:54:17;;;;;;;9.35;4.93;;;18.10;99.90;;;;;;4157710;28;20037;-68
2022/06/12 03:59:19;;;;;;;4.82;4.32;;;18.20;99.90;;;;;;4156840;28;20478;-69
2022/06/12 04:01:21;;;;;;;6.63;4.65;;;18.20;99.90;;;;;;4155298;28;20844;-67
2022/06/12 04:03:27;;;;;;;6.15;4.32;;;18.30;99.90;;;;;;4156505;28;20018;-67
2022/06/12 04:05:42;;;;;;;8.45;4.53;;;18.30;99.90;;;;;;4156726;28;20017;-69
2022/06/12 04:07:46;;;;;;;4.53;4.10;;;18.40;99.90;;;;;;4156243;28;20025;-69
2022/06/12 04:09:51;;;;;;;8.00;4.18;;;18.40;99.90;;;;;;4156837;28;20111;-69
2022/06/12 04:11:57;;;;;;;6.70;5.32;;;18.50;99.90;;;;;;4157215;28;20434;-67
2022/06/12 04:14:01;;;;;;;5.20;4.47;;;18.50;99.90;;;;;;4155752;28;20030;-69
2022/06/12 04:16:07;;;;;;;6.28;3.88;;;18.50;99.90;;;;;;4156971;28;20029;-65
2022/06/12 04:18:09;;;;;;;4.82;4.03;;;18.60;99.90;;;;;;4155922;28;20037;-65
2022/06/12 04:20:35;;;;;;;7.47;4.28;;;18.60;99.90;;;;;;4156855;28;20041;-64
2022/06/12 04:22:48;;;;;;;7.47;4.35;;;18.60;99.90;;;;;;4156167;28;20088;-67
2022/06/12 04:24:55;;;;;;;4.55;3.80;;;18.70;99.90;;;;;;4156440;28;20030;-67
2022/06/12 04:27:04;;;;;;;4.70;4.20;;;18.80;99.90;;;;;;4156017;28;20470;-64
2022/06/12 04:29:11;;;;;;;6.82;3.90;;;18.80;99.90;;;;;;4156372;28;20022;-65
2022/06/12 04:31:17;;;;;;;5.00;4.50;;;18.90;99.90;;;;;;4155959;28;20041;-68
2022/06/12 04:33:34;;;;;;;6.43;4.40;;;19.00;99.90;;;;;;4156830;28;20026;-65
2022/06/12 04:35:44;;;;;;;4.38;3.63;;;19.10;99.90;;;;;;4156235;28;20095;-68
2022/06/12 04:37:45;;;;;;;4.43;3.90;;;19.60;99.90;;;;;;4156629;28;20087;-65
2022/06/12 04:39:48;;;;;;;6.03;3.97;;;20.00;99.90;;;;;;4156187;28;20268;-65
2022/06/12 04:41:50;;;;;;;7.82;4.13;;;20.60;99.90;;;;;;4157211;28;20071;-68
2022/06/12 04:43:51;;;;;;;6.47;4.03;;;20.90;99.90;;;;;;4155454;28;20087;-66
2022/06/12 04:45:52;;;;;;;5.32;3.65;;;21.00;99.90;;;;;;4157067;28;20045;-69
2022/06/12 04:47:54;;;;;;;4.75;3.83;;;21.20;99.90;;;;;;4155644;28;20029;-67
2022/06/12 04:49:55;;;;;;;5.93;3.72;;;21.50;99.90;;;;;;4156634;28;20042;-66
2022/06/12 04:51:58;;;;;;;5.88;4.00;;;21.80;99.90;;;;;;4155353;28;20026;-65
2022/06/12 04:54:00;;;;;;;6.32;3.70;;;22.10;99.90;;;;;;4157403;28;20493;-67
2022/06/12 04:56:01;;;;;;;6.03;3.55;;;22.30;99.90;;;;;;4153972;28;20111;-66
2022/06/12 04:58:05;;;;;;;7.15;3.65;;;22.30;99.90;;;;;;4157271;28;20103;-67
2022/06/12 05:00:08;;;;;;;3.80;3.50;;;22.30;99.90;;;;;;4155391;28;20561;-67
2022/06/12 05:02:09;;;;;;;3.95;3.55;;;22.40;99.90;;;;;;4156553;28;20033;-65
2022/06/12 05:04:11;;;;;;;5.05;3.53;;;22.50;99.90;;;;;;4155229;28;20029;-66
2022/06/12 05:06:16;;;;;;;8.10;3.08;;;22.60;99.90;;;;;;4156124;28;20084;-68
2022/06/12 05:08:18;;;;;;;4.97;3.67;;;22.60;99.90;;;;;;4155763;28;20079;-66
2022/06/12 05:10:20;;;;;;;3.72;3.20;;;22.50;99.90;;;;;;4156209;28;20080;-69
2022/06/12 05:12:21;;;;;;;6.75;3.70;;;22.40;99.90;;;;;;4156289;28;20096;-68
2022/06/12 05:14:22;;;;;;;7.43;3.70;;;22.40;99.90;;;;;;4155476;28;20033;-70
2022/06/12 05:16:37;;;;;;;8.05;3.55;;;22.50;99.90;;;;;;4156823;28;20691;-67
2022/06/12 05:18:38;;;;;;;6.15;3.70;;;22.30;99.90;;;;;;4155433;28;20905;-66
2022/06/12 05:20:40;;;;;;;6.55;4.15;;;22.10;99.90;;;;;;4156450;28;20103;-65
2022/06/12 05:22:41;;;;;;;3.72;3.40;;;21.90;99.90;;;;;;4155027;28;20509;-67
2022/06/12 05:24:45;;;;;;;7.97;4.10;;;21.80;99.90;;;;;;4156753;28;21048;-65
2022/06/12 05:26:48;;;;;;;6.82;3.70;;;22.00;99.90;;;;;;4155001;28;20371;-65
2022/06/12 05:28:50;;;;;;;5.47;3.47;;;22.30;99.90;;;;;;4156707;28;20864;-68
2022/06/12 05:30:51;;;;;;;4.57;3.20;;;22.70;99.90;;;;;;4154526;28;20970;-66
2022/06/12 05:32:54;;;;;;;3.67;3.38;;;23.30;99.90;;;;;;4157001;28;20029;-67
2022/06/12 05:34:55;;;;;;;6.15;3.70;;;23.80;99.90;;;;;;4155070;28;20026;-65
2022/06/12 05:36:58;;;;;;;3.30;2.97;;;24.30;99.90;;;;;;4156409;28;20049;-67
2022/06/12 05:38:59;;;;;;;3.38;3.08;;;25.00;99.90;;;;;;4155062;28;20026;-66
2022/06/12 05:41:01;;;;;;;4.40;3.30;;;25.60;99.90;;;;;;4156358;28;20037;-65
2022/06/12 05:43:02;;;;;;;3.88;3.15;;;26.30;99.90;;;;;;4155556;28;20084;-66
2022/06/12 05:45:12;;;;;;;4.13;3.15;;;27.00;99.90;;;;;;4155806;28;20037;-66
2022/06/12 05:47:14;;;;;;;6.20;3.55;;;27.50;99.90;;;;;;4155547;28;20022;-66
2022/06/12 05:49:16;;;;;;;3.35;2.92;;;28.10;99.90;;;;;;4155920;28;20041;-66
2022/06/12 05:51:19;;;;;;;3.15;2.78;;;28.60;99.90;;;;;;4155746;28;20026;-67
2022/06/12 05:53:23;;;;;;;3.13;2.50;;;29.00;99.10;;;;;;4155241;28;20029;-68
2022/06/12 05:55:24;;;;;;;4.57;3.05;;;29.10;98.50;;;;;;4156145;28;20041;-67
2022/06/12 05:57:26;;;;;;;3.72;2.70;;;29.10;98.30;;;;;;4154450;28;20057;-65
2022/06/12 05:59:27;;;;;;;3.20;2.83;;;29.20;97.60;;;;;;4156157;28;20025;-65
2022/06/12 06:01:28;;;;;;;3.88;2.83;;;28.90;97.30;;;;;;4156315;28;20091;-68
2022/06/12 06:03:29;;;;;;;5.60;3.60;;;28.70;97.40;;;;;;4159346;28;20034;-67
2022/06/12 06:05:31;;;;;;;5.03;3.08;;;28.40;97.10;;;;;;4157730;28;20041;-66
2022/06/12 06:07:33;;;;;;;7.43;3.45;;;28.40;97.40;;;;;;4159256;28;20095;-69
2022/06/12 06:09:34;;;;;;;4.68;2.75;;;28.20;97.30;;;;;;4157281;28;20060;-67
2022/06/12 06:11:35;;;;;;;8.27;3.17;;;28.50;97.20;;;;;;4159624;28;20030;-66
2022/06/12 06:13:37;;;;;;;3.35;2.05;;;28.70;96.70;;;;;;4157817;28;20033;-65
2022/06/12 06:15:38;;;;;;;2.60;2.08;;;28.80;96.20;;;;;;4159162;28;20037;-68
2022/06/12 06:17:40;;;;;;;4.65;2.83;;;28.60;95.90;;;;;;4157272;28;20087;-70
2022/06/12 06:19:41;;;;;;;3.45;2.80;;;28.70;95.80;;;;;;4158234;28;20092;-67
2022/06/12 06:21:43;;;;;;;6.90;2.75;;;28.50;95.70;;;;;;4158053;28;20084;-65
2022/06/12 06:23:44;;;;;;;3.58;2.20;;;28.70;95.60;;;;;;4157902;28;20499;-66
2022/06/12 06:25:45;;;;;;;2.60;1.73;;;28.60;95.30;;;;;;4158557;28;20080;-66
2022/06/12 06:27:46;;;;;;;3.00;1.80;;;28.40;95.00;;;;;;4157541;28;20099;-66
2022/06/12 06:29:48;;;;;;;4.60;1.95;;;28.30;94.90;;;;;;4159123;28;20573;-66
2022/06/12 06:31:49;;;;;;;3.72;2.13;;;28.20;94.70;;;;;;4157352;28;20025;-69
2022/06/12 06:33:50;;;;;;;2.20;2.00;;;28.10;94.70;;;;;;4158966;28;20049;-67
2022/06/12 06:35:51;;;;;;;8.85;2.55;;;28.00;94.70;;;;;;4157593;28;20029;-66
2022/06/12 06:37:53;;;;;;;4.82;2.17;;;28.50;94.30;;;;;;4157181;28;20445;-67
2022/06/12 06:39:56;;;;;;;3.90;2.20;;;28.50;94.50;;;;;;4157414;28;20912;-69
2022/06/12 06:41:57;;;;;;;2.65;2.00;;;28.50;94.00;;;;;;4159179;28;20079;-69
2022/06/12 06:46:19;;;;;;;5.78;1.90;;;28.50;93.90;;;;;;4159045;28;20029;-67
2022/06/12 06:48:21;;;;;;;3.95;1.90;;;28.20;94.00;;;;;;4157332;28;20029;-69
2022/06/12 06:50:23;;;;;;;4.28;1.70;;;28.30;93.80;;;;;;4158568;28;20042;-65
2022/06/12 06:52:25;;;;;;;2.22;1.90;;;28.30;93.80;;;;;;4156915;28;20052;-65
2022/06/12 06:54:26;;;;;;;2.97;2.65;;;28.20;93.70;;;;;;4158453;28;20025;-70
2022/06/12 06:56:27;;;;;;;2.75;2.10;;;27.90;93.70;;;;;;4156805;28;20013;-68
2022/06/12 06:58:32;;;;;;;3.90;1.90;;;27.60;94.00;;;;;;4157602;28;20037;-71
2022/06/12 07:00:34;;;;;;;3.05;2.35;;;27.30;94.30;;;;;;4157705;28;20033;-69
2022/06/12 07:02:35;;;;;;;2.97;1.98;;;27.20;94.40;;;;;;4157184;28;20021;-68
2022/06/12 07:04:38;;;;;;;2.55;1.73;;;27.00;94.50;;;;;;4158347;28;20033;-66
2022/06/12 07:06:39;;;;;;;3.45;2.20;;;27.00;94.60;;;;;;4156868;28;20447;-68
2022/06/12 07:08:40;;;;;;;5.18;1.85;;;27.00;94.50;;;;;;4158292;28;20033;-64
2022/06/12 07:10:43;;;;;;;2.33;2.00;;;27.00;94.50;;;;;;4156593;28;20033;-68
2022/06/12 07:12:44;;;;;;;2.95;2.13;;;26.70;94.60;;;;;;4157571;28;20029;-67
2022/06/12 07:14:45;;;;;;;3.60;2.10;;;26.50;95.00;;;;;;4156857;28;20029;-65
2022/06/12 07:16:47;;;;;;;4.13;2.90;;;26.60;95.20;;;;;;4157928;28;20041;-64
2022/06/12 07:18:48;;;;;;;3.47;1.90;;;27.00;95.20;;;;;;4155120;28;20033;-66
2022/06/12 07:20:53;;;;;;;2.58;2.30;;;27.10;94.90;;;;;;4158173;28;20457;-67
2022/06/12 07:22:55;;;;;;;2.00;1.75;;;27.20;94.90;;;;;;4138113;28;20049;-68
2022/06/12 07:24:56;;;;;;;2.35;1.85;;;27.20;94.50;;;;;;4157980;28;20021;-66
2022/06/12 07:26:57;;;;;;;3.65;2.10;;;27.60;94.20;;;;;;4156583;28;20026;-66
2022/06/12 07:28:58;;;;;;;3.47;2.25;;;27.60;93.50;;;;;;4157102;28;20474;-65
2022/06/12 07:31:00;;;;;;;2.85;1.75;;;27.40;93.70;;;;;;4157220;28;20044;-67
2022/06/12 07:33:01;;;;;;;3.60;2.08;;;27.60;93.70;;;;;;4157268;28;20034;-69
2022/06/12 07:35:03;;;;;;;1.73;1.63;;;27.70;93.60;;;;;;4157394;28;20041;-65
2022/06/12 07:37:07;;;;;;;2.55;2.25;;;27.70;93.50;;;;;;4156605;28;20030;-66
2022/06/12 07:39:11;;;;;;;1.83;1.70;;;27.50;93.40;;;;;;4157675;28;20021;-66
2022/06/12 07:41:14;;;;;;;2.20;2.00;;;27.30;93.60;;;;;;4156118;28;20092;-70
2022/06/12 07:43:15;;;;;;;3.25;1.75;;;27.10;93.80;;;;;;4158560;28;20029;-66
2022/06/12 07:45:17;;;;;;;1.85;1.75;;;27.20;93.80;;;;;;4156113;28;20033;-67
2022/06/12 07:47:19;;;;;;;3.00;1.60;;;26.80;93.80;;;;;;4158010;28;20045;-65
2022/06/12 07:49:22;;;;;;;1.77;1.65;;;26.30;93.50;;;;;;4155653;28;20033;-64
2022/06/12 07:51:23;;;;;;;2.75;2.35;;;26.20;94.30;;;;;;4157438;28;20083;-70
2022/06/12 07:53:25;;;;;;;3.08;1.90;;;26.30;94.70;;;;;;4155735;28;20045;-64
2022/06/12 07:55:26;;;;;;;4.03;2.35;;;26.80;94.50;;;;;;4157791;28;20049;-67
2022/06/12 07:57:27;;;;;;;5.68;1.70;;;26.70;93.60;;;;;;4155310;28;20057;-65
2022/06/12 07:59:29;;;;;;;14.88;3.38;;;26.50;93.30;;;;;;4157165;28;20029;-67
2022/06/12 08:01:30;;;;;;;75.80;9.45;;;26.40;93.50;;;;;;4156228;28;20087;-68
2022/06/12 08:03:32;;;;;;;53.28;8.20;;;26.30;93.30;;;;;;4157123;28;20033;-67
2022/06/12 08:05:34;;;;;;;29.15;5.32;;;26.20;93.50;;;;;;4157049;28;20018;-66
2022/06/12 08:07:35;;;;;;;5.03;2.28;;;26.20;93.50;;;;;;4156231;28;20033;-71
2022/06/12 08:09:36;;;;;;;3.45;2.38;;;26.00;93.60;;;;;;4156742;28;20029;-68
2022/06/12 08:11:40;;;;;;;3.10;2.25;;;25.80;93.90;;;;;;4155520;28;20091;-66
2022/06/12 08:13:41;;;;;;;2.17;1.98;;;25.70;94.00;;;;;;4157640;28;20083;-67
2022/06/12 08:15:45;;;;;;;3.30;2.20;;;25.60;94.20;;;;;;4155751;28;20055;-66
2022/06/12 08:17:46;;;;;;;2.00;1.90;;;25.40;94.40;;;;;;4157007;28;20095;-66
2022/06/12 08:22:09;;;;;;;3.35;2.03;;;25.20;95.00;;;;;;4157411;28;20029;-66
2022/06/12 08:24:10;;;;;;;2.90;1.80;;;25.10;95.00;;;;;;4155494;28;20087;-66
2022/06/12 08:26:16;;;;;;;2.40;2.20;;;25.00;94.90;;;;;;4157310;28;20088;-67
2022/06/12 08:28:17;;;;;;;8.98;5.38;;;24.70;95.10;;;;;;4155717;28;20524;-67
2022/06/12 08:30:19;;;;;;;4.53;2.67;;;24.40;95.50;;;;;;4157238;28;20022;-66
2022/06/12 08:32:21;;;;;;;28.08;5.80;;;24.50;95.50;;;;;;4155625;28;20084;-66
2022/06/12 08:34:27;;;;;;;3.78;2.30;;;24.80;95.30;;;;;;4156783;28;20046;-67
2022/06/12 08:36:30;;;;;;;3.50;1.92;;;24.90;95.00;;;;;;4155511;28;20108;-65
2022/06/12 08:38:32;;;;;;;9.80;3.00;;;24.90;95.20;;;;;;4156817;28;20390;-66
2022/06/12 08:40:57;;;;;;;24.17;5.25;;;24.90;95.30;;;;;;4155239;28;20075;-66
2022/06/12 08:43:36;;;;;;;5.70;2.17;;;25.10;95.40;;;;;;4156746;28;20030;-65
2022/06/12 08:45:50;;;;;;;4.10;2.53;;;25.20;95.40;;;;;;4153752;28;20046;-66
2022/06/12 08:48:01;;;;;;;2.10;1.80;;;25.10;95.70;;;;;;4156846;28;20033;-66
2022/06/12 08:50:16;;;;;;;2.30;1.90;;;25.00;95.80;;;;;;4155311;28;20095;-69
2022/06/12 08:52:47;;;;;;;3.67;2.10;;;25.10;96.00;;;;;;4156391;28;20123;-67
2022/06/12 08:54:48;;;;;;;2.75;2.40;;;25.10;96.70;;;;;;4155055;28;20030;-64
2022/06/12 08:57:06;;;;;;;10.50;3.45;;;25.10;96.70;;;;;;4156386;28;20053;-65
2022/06/12 08:59:10;;;;;;;20.30;4.53;;;25.30;96.80;;;;;;4154640;28;20037;-67
2022/06/12 09:01:12;;;;;;;20.60;5.00;;;25.40;96.60;;;;;;4156738;28;20517;-70
2022/06/12 09:03:18;;;;;;;49.72;8.82;;;25.40;96.60;;;;;;4154872;28;20064;-66
2022/06/12 09:05:26;;;;;;;15.27;3.95;;;25.60;96.70;;;;;;4156810;28;20619;-66
2022/06/12 09:07:40;;;;;;;3.80;2.40;;;25.90;96.60;;;;;;4155234;28;20056;-65
2022/06/12 09:09:54;;;;;;;2.35;2.13;;;25.80;95.70;;;;;;4156366;28;20025;-65
2022/06/12 09:12:12;;;;;;;36.83;6.40;;;25.60;95.80;;;;;;4154862;28;20037;-66
2022/06/12 09:14:29;;;;;;;5.53;2.92;;;25.70;96.20;;;;;;4156252;28;20099;-66
2022/06/12 09:16:49;;;;;;;3.03;2.15;;;25.70;94.80;;;;;;4155021;28;20487;-68
2022/06/12 09:19:09;;;;;;;2.88;2.45;;;25.60;94.80;;;;;;4155653;28;20469;-65
2022/06/12 09:21:33;;;;;;;3.72;2.63;;;25.50;94.90;;;;;;4155431;28;20095;-65
2022/06/12 09:24:02;;;;;;;3.30;2.20;;;25.30;94.40;;;;;;4155570;28;20079;-68
2022/06/12 09:26:14;;;;;;;32.17;5.80;;;25.50;94.50;;;;;;4156144;28;20776;-69
2022/06/12 09:28:25;;;;;;;14.25;3.35;;;25.90;94.30;;;;;;4154779;28;20079;-66
2022/06/12 09:30:36;;;;;;;;;;;26.20;93.90;;;;;;4156678;28;20556;-67
2022/06/12 09:32:48;;;;;;;37.75;6.80;;;26.30;93.50;;;;;;4154446;28;20403;-66
2022/06/12 09:34:55;;;;;;;23.63;6.00;;;26.20;93.50;;;;;;4156294;28;20029;-68
2022/06/12 09:38:18;;;;;;;9.98;3.13;;;26.00;93.30;;;;;;4157230;28;20091;-66
2022/06/12 09:39:32;;;;;;;3.90;2.45;;;26.00;93.60;;;;;;4159279;28;20692;-67
2022/06/12 09:42:18;;;;;;;16.73;4.53;;;26.10;93.70;;;;;;4157910;28;21242;-68
2022/06/12 09:44:32;;;;;;;14.85;3.45;;;26.50;93.30;;;;;;4154268;28;20057;-65
2022/06/12 09:46:42;;;;;;;3.25;2.40;;;26.40;92.90;;;;;;4157892;28;20087;-66
2022/06/12 09:48:52;;;;;;;1.70;1.60;;;26.00;93.10;;;;;;4159493;28;20726;-67
2022/06/12 09:51:13;;;;;;;1.92;1.77;;;25.70;93.50;;;;;;4157847;28;20673;-66
2022/06/12 09:53:27;;;;;;;1.98;1.88;;;25.50;93.60;;;;;;4159187;28;20107;-67
2022/06/12 09:55:36;;;;;;;8.48;3.05;;;25.50;93.70;;;;;;4158158;28;20033;-65
2022/06/12 09:57:40;;;;;;;3.43;2.20;;;25.60;93.80;;;;;;4158725;28;20079;-67
2022/06/12 10:00:05;;;;;;;3.90;2.20;;;25.60;93.70;;;;;;4157882;28;20037;-65
2022/06/12 10:02:22;;;;;;;1.60;1.50;;;25.60;93.90;;;;;;4158451;28;20164;-65
2022/06/12 10:04:42;;;;;;;2.15;2.00;;;25.50;93.70;;;;;;4158411;28;20452;-66
2022/06/12 10:06:49;;;;;;;2.10;1.90;;;25.70;93.70;;;;;;4158428;28;20021;-66
2022/06/12 10:09:08;;;;;;;2.10;1.90;;;25.80;93.60;;;;;;4158462;28;20079;-66
2022/06/12 10:11:33;;;;;;;3.42;2.13;;;25.90;93.60;;;;;;4157606;28;20029;-65
2022/06/12 10:13:41;;;;;;;2.58;2.33;;;26.00;93.70;;;;;;4158993;28;20068;-67
2022/06/12 10:15:48;;;;;;;2.20;2.00;;;26.20;93.90;;;;;;4157523;28;20075;-67
2022/06/12 10:18:06;;;;;;;2.33;2.05;;;26.00;94.20;;;;;;4158630;28;20033;-67
2022/06/12 10:20:15;;;;;;;2.63;2.13;;;26.00;94.30;;;;;;4157857;28;20816;-65
2022/06/12 10:22:27;;;;;;;2.13;1.92;;;25.90;94.20;;;;;;4158449;28;20424;-66
2022/06/12 10:24:28;;;;;;;2.20;1.98;;;25.70;93.60;;;;;;4157471;28;20499;-66
2022/06/12 10:26:31;;;;;;;1.85;1.75;;;25.50;93.90;;;;;;4158648;28;20123;-66
2022/06/12 10:28:37;;;;;;;2.33;2.13;;;25.20;94.00;;;;;;4154962;28;20053;-66
2022/06/12 10:30:44;;;;;;;3.63;2.00;;;25.00;94.20;;;;;;4158476;28;20025;-66
2022/06/12 10:32:52;;;;;;;5.90;2.50;;;25.10;94.40;;;;;;4157419;28;20017;-64
2022/06/12 10:35:08;;;;;;;4.70;1.85;;;25.30;94.50;;;;;;4157949;28;20033;-66
2022/06/12 10:37:22;;;;;;;44.75;6.60;;;25.30;95.20;;;;;;4157582;28;20103;-67
2022/06/12 10:39:25;;;;;;;4.38;2.17;;;25.50;95.20;;;;;;4158115;28;20064;-67
2022/06/12 10:41:29;;;;;;;3.20;2.03;;;25.40;94.30;;;;;;4157182;28;20075;-67
2022/06/12 10:43:44;;;;;;;2.40;2.20;;;25.40;94.30;;;;;;4157898;28;20018;-67
2022/06/12 10:46:15;;;;;;;2.30;2.10;;;25.50;94.10;;;;;;4157256;28;20834;-64
2022/06/12 10:48:26;;;;;;;2.75;2.03;;;25.40;94.60;;;;;;4153214;28;20045;-67
2022/06/12 10:50:37;;;;;;;25.35;5.13;;;25.60;94.40;;;;;;4154902;28;20041;-66
2022/06/12 10:52:48;;;;;;;;;;;25.90;94.50;;;;;;4158827;28;20107;-68
2022/06/12 10:54:51;;;;;;;28.05;5.90;;;25.80;93.50;;;;;;4157206;28;19959;-69
2022/06/12 10:57:05;;;;;;;21.13;4.28;;;25.70;94.10;;;;;;4158082;28;20053;-66
2022/06/12 11:00:00;;;;;;;3.30;2.50;;;25.50;94.30;;;;;;4157053;28;20034;-68
2022/06/12 11:02:21;;;;;;;2.25;2.05;;;25.50;93.90;;;;;;4139171;28;20084;-64
2022/06/12 11:04:35;;;;;;;2.28;2.08;;;25.50;94.10;;;;;;4151056;28;20437;-66
2022/06/12 11:07:12;;;;;;;7.65;2.58;;;25.30;94.50;;;;;;4157747;28;20470;-66
2022/06/12 11:09:20;;;;;;;2.67;2.13;;;25.10;94.90;;;;;;4157201;28;20472;-69
2022/06/12 11:11:48;;;;;;;3.75;1.92;;;25.10;94.60;;;;;;4157545;28;20104;-65
2022/06/12 11:14:09;;;;;;;5.38;1.90;;;25.10;94.70;;;;;;4156882;28;20109;-69
2022/06/12 11:16:53;;;;;;;3.75;1.90;;;25.30;95.30;;;;;;4156943;28;20034;-66
2022/06/12 11:18:54;;;;;;;2.10;1.90;;;25.30;95.10;;;;;;4157887;28;20029;-64
2022/06/12 11:21:22;;;;;;;1.73;1.63;;;25.20;95.30;;;;;;4156289;28;20021;-66